Time;durP1;ratioP1;P1;durP2;ratioP2;P2;SDS_P1;SDS_P2;PMS_P1;PMS_P2;Temp;Humidity;BMP_temperature;BMP_pressure;BME280_temperature;BME280_humidity;BME280_pressure;Samples;Min_cycle;Max_cycle;Signal;HPM_P1;HPM_P2
2021/10/26 00:02:12;;;;;;;16.33;9.57;;;;;;;12.17;94.73;101686.16;4991994;28;20038;-48
2021/10/26 00:04:41;;;;;;;16.67;11.05;;;;;;;12.16;95.01;101688.09;4992142;28;20081;-47
2021/10/26 00:07:09;;;;;;;18.15;11.32;;;;;;;12.15;94.44;101695.47;4991006;28;20042;-47
2021/10/26 00:09:36;;;;;;;18.90;11.55;;;;;;;12.15;95.16;101700.94;4991941;28;20038;-48
2021/10/26 00:12:05;;;;;;;16.73;10.23;;;;;;;12.17;94.65;101695.22;4992104;28;20046;-46
2021/10/26 00:14:33;;;;;;;17.25;10.93;;;;;;;12.18;94.77;101702.31;4992112;28;20501;-47
2021/10/26 00:17:01;;;;;;;15.85;9.85;;;;;;;12.19;94.92;101700.41;4991721;28;20042;-47
2021/10/26 00:19:28;;;;;;;16.52;10.27;;;;;;;12.20;94.45;101700.16;4977375;28;20054;-49
2021/10/26 00:21:56;;;;;;;14.70;9.40;;;;;;;12.21;94.20;101704.53;4992103;28;20054;-47
2021/10/26 00:24:23;;;;;;;18.05;10.32;;;;;;;12.19;94.16;101705.88;4992118;28;20042;-48
2021/10/26 00:26:51;;;;;;;19.58;11.32;;;;;;;12.15;94.07;101700.09;4990643;28;20081;-46
2021/10/26 00:29:22;;;;;;;18.60;10.70;;;;;;;12.13;94.77;101703.09;4991908;28;20073;-47
2021/10/26 00:31:50;;;;;;;17.40;11.32;;;;;;;12.13;94.72;101699.53;4992082;28;20046;-47
2021/10/26 00:34:18;;;;;;;16.35;11.15;;;;;;;12.11;95.32;101707.16;4991476;28;20046;-44
2021/10/26 00:36:46;;;;;;;17.25;10.98;;;;;;;12.11;95.46;101715.34;4990492;28;20053;-46
2021/10/26 00:39:14;;;;;;;18.92;11.48;;;;;;;12.14;95.45;101714.84;5006469;28;20054;-47
2021/10/26 00:41:41;;;;;;;17.40;11.57;;;;;;;12.15;95.00;101716.50;4991772;28;20050;-48
2021/10/26 00:44:10;;;;;;;19.05;11.60;;;;;;;12.14;95.35;101709.38;4993207;28;20046;-48
2021/10/26 00:46:38;;;;;;;19.05;11.40;;;;;;;12.16;95.00;101718.13;4993951;28;20042;-47
2021/10/26 00:49:10;;;;;;;19.58;12.77;;;;;;;12.15;94.99;101717.31;4995376;28;20062;-47
2021/10/26 00:51:40;;;;;;;18.50;12.15;;;;;;;12.14;95.34;101725.75;5010444;28;20450;-47
2021/10/26 00:54:09;;;;;;;20.25;11.77;;;;;;;12.14;95.54;101717.56;4995606;28;20531;-47
2021/10/26 00:56:49;;;;;;;20.63;12.18;;;;;;;12.14;95.43;101710.19;4993514;28;20046;-47
2021/10/26 00:59:17;;;;;;;22.33;13.18;;;;;;;12.15;95.09;101722.78;4993753;28;20074;-47
2021/10/26 01:01:48;;;;;;;16.25;10.23;;;;;;;12.17;95.52;101714.34;4994098;28;20045;-48
2021/10/26 01:04:19;;;;;;;15.80;10.45;;;;;;;12.18;95.20;101715.97;4993815;28;20047;-48
2021/10/26 01:06:47;;;;;;;20.33;11.95;;;;;;;12.16;95.34;101718.13;4992067;28;20054;-44
2021/10/26 01:09:15;;;;;;;19.38;11.43;;;;;;;12.20;95.60;101734.88;4993938;28;20129;-45
2021/10/26 01:11:44;;;;;;;18.08;11.25;;;;;;;12.22;95.14;101727.22;4993689;28;20497;-49
2021/10/26 01:14:12;;;;;;;18.60;11.73;;;;;;;12.22;95.42;101732.66;5009340;28;20061;-49
2021/10/26 01:16:40;;;;;;;17.55;12.50;;;;;;;12.22;95.00;101728.06;4994562;28;20038;-46
2021/10/26 01:19:12;;;;;;;17.58;12.13;;;;;;;12.24;94.75;101731.38;4994202;28;20101;-48
2021/10/26 01:21:41;;;;;;;20.10;11.82;;;;;;;12.25;95.35;101729.44;4993667;28;20034;-48
2021/10/26 01:24:08;;;;;;;17.67;12.40;;;;;;;12.24;94.67;101735.97;4994739;28;20084;-46
2021/10/26 01:26:37;;;;;;;20.00;11.38;;;;;;;12.20;94.79;101727.47;4993135;28;20073;-46
2021/10/26 01:29:05;;;;;;;18.70;12.50;;;;;;;12.19;95.52;101727.72;5009997;28;20117;-49
2021/10/26 01:31:37;;;;;;;19.67;12.80;;;;;;;12.18;94.96;101728.81;4993306;28;20042;-45
2021/10/26 01:34:29;;;;;;;18.42;11.30;;;;;;;12.18;95.89;101731.56;5009214;28;20042;-47
2021/10/26 01:37:05;;;;;;;19.45;12.88;;;;;;;12.17;95.92;101730.75;4989926;28;20046;-46
2021/10/26 01:39:35;;;;;;;21.10;13.35;;;;;;;12.17;95.47;101729.88;4986045;28;20062;-48
2021/10/26 01:42:05;;;;;;;19.85;12.40;;;;;;;12.17;95.23;101729.88;4992980;28;20387;-47
2021/10/26 01:44:32;;;;;;;19.23;12.90;;;;;;;12.15;96.10;101724.69;4994424;28;20158;-46
2021/10/26 01:47:20;;;;;;;19.08;13.10;;;;;;;12.15;95.18;101728.25;4993195;28;20078;-48
2021/10/26 01:49:48;;;;;;;19.23;12.35;;;;;;;12.11;95.55;101731.75;4992873;28;20490;-47
2021/10/26 01:52:17;;;;;;;20.25;13.35;;;;;;;12.10;95.57;101730.94;4993092;28;20100;-46
2021/10/26 01:54:45;;;;;;;20.05;13.93;;;;;;;12.07;95.99;101734.16;4992766;28;20043;-47
2021/10/26 01:57:18;;;;;;;20.40;13.13;;;;;;;12.07;96.23;101730.59;4992062;28;20129;-48
2021/10/26 02:00:09;;;;;;;20.83;12.65;;;;;;;12.10;95.81;101730.09;4992851;28;20050;-47
2021/10/26 02:02:43;;;;;;;21.17;13.18;;;;;;;12.13;95.19;101732.31;4994283;28;20038;-46
2021/10/26 02:05:10;;;;;;;21.35;13.30;;;;;;;12.17;95.52;101736.19;4992613;28;20129;-49
2021/10/26 02:07:38;;;;;;;18.83;13.70;;;;;;;12.18;95.17;101729.63;4984184;28;20034;-49
2021/10/26 02:10:06;;;;;;;19.85;12.38;;;;;;;12.19;95.08;101734.00;4992921;28;20042;-49
2021/10/26 02:12:35;;;;;;;20.50;12.88;;;;;;;12.18;95.11;101740.56;4992551;28;20038;-47
2021/10/26 02:15:03;;;;;;;19.50;13.15;;;;;;;12.16;95.58;101740.00;4989498;28;20062;-47
2021/10/26 02:17:32;;;;;;;20.38;14.52;;;;;;;12.14;94.91;101742.16;4992071;28;20069;-44
2021/10/26 02:20:03;;;;;;;22.77;13.23;;;;;;;12.12;95.12;101745.16;4993140;28;20105;-47
2021/10/26 02:22:31;;;;;;;21.20;14.52;;;;;;;12.08;94.68;101735.81;4992733;28;20058;-45
2021/10/26 02:24:59;;;;;;;18.35;12.55;;;;;;;12.07;95.14;101742.34;5008753;28;20061;-47
2021/10/26 02:27:27;;;;;;;17.25;12.13;;;;;;;12.09;94.91;101737.44;4991945;28;20429;-44
2021/10/26 02:29:54;;;;;;;26.30;14.35;;;;;;;12.09;95.29;101734.72;4982152;28;20065;-46
2021/10/26 02:32:22;;;;;;;18.23;12.13;;;;;;;12.07;94.58;101742.34;5007002;28;20044;-46
2021/10/26 02:34:50;;;;;;;27.85;13.82;;;;;;;12.05;94.62;101744.53;4993062;28;20038;-47
2021/10/26 02:37:17;;;;;;;20.02;13.00;;;;;;;12.05;95.92;101750.00;4989260;28;20053;-47
2021/10/26 02:39:45;;;;;;;18.10;11.65;;;;;;;12.07;95.22;101752.44;4993213;28;20069;-47
2021/10/26 02:42:12;;;;;;;18.58;13.02;;;;;;;12.08;95.29;101751.38;5008681;28;20045;-47
2021/10/26 02:44:40;;;;;;;22.83;13.43;;;;;;;12.11;94.96;101740.75;4991854;28;20129;-47
2021/10/26 02:47:08;;;;;;;20.48;12.35;;;;;;;12.14;95.47;101742.16;5008457;28;20081;-44
2021/10/26 02:49:36;;;;;;;24.35;13.85;;;;;;;12.14;95.08;101740.25;5008497;28;20133;-46
2021/10/26 02:52:04;;;;;;;24.15;14.57;;;;;;;12.12;94.98;101750.63;5008715;28;20515;-47
2021/10/26 02:54:32;;;;;;;19.85;12.77;;;;;;;12.10;94.71;101751.97;4993396;28;20074;-46
2021/10/26 02:57:03;;;;;;;17.73;12.85;;;;;;;12.09;94.73;101747.56;4989848;28;20163;-48
2021/10/26 02:59:33;;;;;;;20.50;13.23;;;;;;;12.08;95.12;101748.66;4991309;28;20077;-46
2021/10/26 03:02:01;;;;;;;23.98;15.10;;;;;;;12.09;94.86;101750.28;4992795;28;20047;-47
2021/10/26 03:04:29;;;;;;;20.42;14.18;;;;;;;12.09;94.60;101750.28;4992016;28;20105;-48
2021/10/26 03:06:58;;;;;;;21.75;12.52;;;;;;;12.10;95.03;101751.97;4990887;28;20101;-47
2021/10/26 03:09:25;;;;;;;18.75;11.10;;;;;;;12.09;94.56;101739.38;4991201;28;20077;-47
2021/10/26 03:11:53;;;;;;;22.58;14.68;;;;;;;12.07;94.28;101747.00;4993063;28;20054;-45
2021/10/26 03:14:21;;;;;;;18.98;12.93;;;;;;;12.06;94.39;101750.81;4992471;28;20043;-47
2021/10/26 03:16:49;;;;;;;25.25;14.77;;;;;;;12.04;94.57;101753.78;5006968;28;20108;-48
2021/10/26 03:19:17;;;;;;;20.10;12.75;;;;;;;12.03;94.33;101760.34;4992396;28;20042;-47
2021/10/26 03:21:45;;;;;;;21.88;12.27;;;;;;;12.01;94.66;101772.59;5008118;28;20058;-47
2021/10/26 03:24:13;;;;;;;21.35;13.70;;;;;;;12.00;94.29;101770.94;4992631;28;20042;-47
2021/10/26 03:26:40;;;;;;;23.73;14.73;;;;;;;12.00;94.82;101765.47;4991543;28;20053;-50
2021/10/26 03:29:09;;;;;;;22.42;14.15;;;;;;;12.01;95.35;101767.16;4990707;28;20516;-48
2021/10/26 03:31:38;;;;;;;20.45;13.70;;;;;;;12.03;95.60;101762.25;4977978;28;20042;-47
2021/10/26 03:34:35;;;;;;;22.45;14.20;;;;;;;12.05;95.08;101771.00;4991034;28;20440;-46
2021/10/26 03:37:04;;;;;;;29.90;16.23;;;;;;;12.03;95.26;101767.72;5007659;28;20042;-47
2021/10/26 03:39:32;;;;;;;25.65;16.73;;;;;;;11.99;94.58;101769.31;4992829;28;20046;-48
2021/10/26 03:42:00;;;;;;;25.33;14.10;;;;;;;12.00;94.82;101774.53;4991224;28;20055;-48
2021/10/26 03:44:28;;;;;;;24.58;14.70;;;;;;;12.00;94.90;101768.22;5007320;28;20038;-47
2021/10/26 03:46:56;;;;;;;25.30;15.45;;;;;;;12.01;94.66;101767.16;4985055;28;20405;-48
2021/10/26 03:49:25;;;;;;;24.35;15.77;;;;;;;12.00;95.00;101773.66;4989877;28;20052;-44
2021/10/26 03:51:53;;;;;;;27.05;16.23;;;;;;;12.00;94.73;101779.13;5004810;28;20454;-45
2021/10/26 03:54:20;;;;;;;24.48;14.52;;;;;;;12.01;95.04;101767.16;4990964;28;20074;-49
2021/10/26 03:56:52;;;;;;;26.42;15.73;;;;;;;12.01;94.57;101767.97;4987817;28;20055;-48
2021/10/26 03:59:20;;;;;;;25.35;14.95;;;;;;;12.02;94.47;101768.78;4979600;28;20049;-48
2021/10/26 04:01:48;;;;;;;24.10;15.18;;;;;;;12.06;95.09;101772.66;4990989;28;20058;-47
2021/10/26 04:04:17;;;;;;;21.67;14.65;;;;;;;12.07;94.93;101780.59;4990975;28;20133;-48
2021/10/26 04:06:45;;;;;;;24.25;14.80;;;;;;;12.07;94.70;101775.13;4991740;28;20034;-46
2021/10/26 04:09:14;;;;;;;27.70;16.95;;;;;;;12.05;94.67;101776.47;4990703;28;20065;-48
2021/10/26 04:12:16;;;;;;;29.35;17.20;;;;;;;12.04;94.64;101775.63;4990490;28;20046;-51
2021/10/26 04:14:38;;;;;;;23.80;14.45;;;;;;;12.02;94.99;101776.97;4991814;28;20038;-48
2021/10/26 04:17:10;;;;;;;30.10;17.65;;;;;;;12.01;95.05;101772.59;5007236;28;20089;-47
2021/10/26 04:19:37;;;;;;;26.38;17.90;;;;;;;12.00;94.61;101779.13;4995081;28;20121;-48
2021/10/26 04:22:05;;;;;;;28.35;18.58;;;;;;;11.98;95.36;101771.22;5011254;28;20046;-47
2021/10/26 04:24:34;;;;;;;25.80;16.50;;;;;;;12.03;95.68;101773.19;4994695;28;20064;-47
2021/10/26 04:27:01;;;;;;;22.58;15.98;;;;;;;12.06;94.73;101776.22;5010282;28;20050;-46
2021/10/26 04:29:30;;;;;;;24.77;16.92;;;;;;;12.08;94.75;101781.44;4994193;28;20045;-47
2021/10/26 04:31:58;;;;;;;29.45;19.60;;;;;;;12.06;94.25;101787.16;4994723;28;20161;-46
2021/10/26 04:34:28;;;;;;;24.27;16.98;;;;;;;12.05;94.20;101787.38;4994642;28;20046;-47
2021/10/26 04:36:57;;;;;;;26.50;18.60;;;;;;;12.02;94.98;101798.81;5010508;28;20062;-46
2021/10/26 04:39:25;;;;;;;26.85;18.80;;;;;;;11.98;94.84;101797.69;4992712;28;20052;-49
2021/10/26 04:41:54;;;;;;;27.30;18.15;;;;;;;11.92;95.48;101794.88;4994373;28;20041;-48
2021/10/26 04:44:22;;;;;;;29.48;18.33;;;;;;;11.94;95.13;101803.66;4994443;28;20050;-49
2021/10/26 04:46:50;;;;;;;25.20;16.35;;;;;;;11.97;95.42;101806.97;4994429;28;20038;-49
2021/10/26 04:49:21;;;;;;;27.85;20.83;;;;;;;11.96;94.56;101802.59;5005825;28;20045;-49
2021/10/26 04:51:49;;;;;;;27.02;18.70;;;;;;;11.97;94.99;101806.97;4992727;28;20129;-47
2021/10/26 04:54:17;;;;;;;32.90;20.67;;;;;;;11.94;95.04;101803.66;5010309;28;20042;-48
2021/10/26 04:56:52;;;;;;;29.05;19.67;;;;;;;11.95;95.17;101799.00;5010234;28;20050;-49
2021/10/26 04:59:35;;;;;;;26.40;15.38;;;;;;;11.98;94.87;101803.13;4994823;28;20046;-48
2021/10/26 05:02:03;;;;;;;25.48;16.20;;;;;;;11.98;94.75;101798.53;4994586;28;20038;-46
2021/10/26 05:04:36;;;;;;;25.98;17.75;;;;;;;11.99;94.84;101799.34;5010306;28;20046;-48
2021/10/26 05:07:04;;;;;;;24.92;17.52;;;;;;;12.02;95.15;101807.03;5010151;28;20045;-47
2021/10/26 05:09:31;;;;;;;29.60;19.88;;;;;;;12.00;94.92;101803.72;4990026;28;20047;-49
2021/10/26 05:11:59;;;;;;;25.42;15.23;;;;;;;11.97;94.43;101802.31;4985601;28;20041;-46
2021/10/26 05:14:27;;;;;;;25.50;16.27;;;;;;;11.99;94.61;101805.63;4990450;28;20050;-50
2021/10/26 05:17:20;;;;;;;22.30;15.93;;;;;;;11.96;95.29;101805.31;4989234;28;20050;-47
2021/10/26 05:20:09;;;;;;;27.63;18.67;;;;;;;11.93;94.66;101802.00;4994332;28;20050;-44
2021/10/26 05:23:11;;;;;;;22.15;14.32;;;;;;;11.92;96.02;101803.06;4941454;28;20040;-49
2021/10/26 05:26:07;;;;;;;28.73;18.08;;;;;;;11.91;95.50;101815.09;4936795;29;20047;-49
2021/10/26 05:28:40;;;;;;;27.77;17.67;;;;;;;11.89;95.29;101814.50;4937378;28;20058;-47
2021/10/26 05:31:08;;;;;;;30.92;21.45;;;;;;;11.86;95.22;101828.66;4943342;29;20047;-48
2021/10/26 05:33:37;;;;;;;22.75;15.80;;;;;;;11.84;96.07;101825.34;4953540;29;20050;-48
2021/10/26 05:36:05;;;;;;;27.73;17.98;;;;;;;11.83;95.52;101818.22;4953383;29;20057;-47
2021/10/26 05:38:34;;;;;;;31.38;21.13;;;;;;;11.83;95.41;101818.22;4952988;29;20540;-48
2021/10/26 05:41:02;;;;;;;35.17;20.85;;;;;;;11.84;95.14;101825.34;4930815;29;20509;-48
2021/10/26 05:43:30;;;;;;;26.77;16.70;;;;;;;11.83;95.80;101833.78;4923527;29;20381;-47
2021/10/26 05:45:59;;;;;;;31.33;21.38;;;;;;;11.82;96.31;101824.75;4953368;29;20415;-47
2021/10/26 05:48:28;;;;;;;19.58;12.65;;;;;;;11.87;96.60;101830.31;4953369;29;20044;-47
2021/10/26 05:50:56;;;;;;;20.67;14.43;;;;;;;11.87;95.96;101827.59;4951183;29;20047;-47
2021/10/26 05:53:24;;;;;;;29.52;17.95;;;;;;;11.85;95.90;101826.97;4949338;29;20085;-46
2021/10/26 05:55:52;;;;;;;31.13;20.83;;;;;;;11.83;95.56;101834.59;4952724;29;20088;-48
2021/10/26 05:58:20;;;;;;;30.80;20.23;;;;;;;11.78;95.33;101848.19;4990146;28;20137;-47
2021/10/26 06:00:48;;;;;;;30.20;19.98;;;;;;;11.78;95.93;101847.34;4993356;28;20035;-49
2021/10/26 06:03:16;;;;;;;30.40;20.52;;;;;;;11.74;96.31;101847.03;4993319;28;20050;-48
2021/10/26 06:05:43;;;;;;;28.75;20.17;;;;;;;11.75;96.11;101854.16;4992472;28;20034;-50
2021/10/26 06:08:11;;;;;;;31.77;22.30;;;;;;;11.74;95.65;101847.03;5008525;28;20069;-48
2021/10/26 06:10:44;;;;;;;28.93;19.83;;;;;;;11.75;95.60;101859.59;4398956;28;10002501;-48
2021/10/26 06:13:17;;;;;;;28.67;19.52;;;;;;;11.78;96.14;101861.81;4984092;28;20057;-47
2021/10/26 06:15:45;;;;;;;20.70;14.18;;;;;;;11.76;96.57;101863.16;4988345;28;20157;-48
2021/10/26 06:18:18;;;;;;;25.33;17.58;;;;;;;11.76;96.56;101871.34;4990748;28;20113;-48
2021/10/26 06:20:47;;;;;;;25.05;15.85;;;;;;;11.76;96.69;101871.34;5005891;28;20073;-47
2021/10/26 06:23:15;;;;;;;21.20;14.05;;;;;;;11.76;96.15;101877.66;4988004;28;20522;-49
2021/10/26 06:25:44;;;;;;;31.58;21.17;;;;;;;11.78;96.31;101880.13;4989680;28;20055;-49
2021/10/26 06:28:35;;;;;;;29.83;20.48;;;;;;;11.72;96.60;101880.03;4942074;29;20122;-48
2021/10/26 06:31:03;;;;;;;29.77;20.05;;;;;;;11.70;95.88;101884.09;4930220;29;20047;-46
2021/10/26 06:33:35;;;;;;;22.52;13.45;;;;;;;11.77;97.72;101879.31;4911063;29;20056;-50
2021/10/26 06:36:14;;;;;;;27.30;17.67;;;;;;;11.76;96.09;101882.28;4915075;29;20403;-49
2021/10/26 06:38:42;;;;;;;27.70;18.20;;;;;;;11.72;96.31;101885.50;4911705;29;20083;-45
2021/10/26 06:41:17;;;;;;;24.52;17.02;;;;;;;11.75;97.38;101881.44;4927662;29;20051;-47
2021/10/26 06:43:52;;;;;;;31.13;19.60;;;;;;;11.70;97.11;101876.72;4914880;29;20043;-48
2021/10/26 06:46:38;;;;;;;32.35;20.02;;;;;;;11.68;95.87;101880.78;4926906;29;20039;-49
2021/10/26 06:49:24;;;;;;;31.02;20.40;;;;;;;11.65;96.27;101887.56;4928573;29;20050;-47
2021/10/26 06:52:10;;;;;;;25.42;16.38;;;;;;;11.67;96.24;101879.16;4934655;29;20416;-46
2021/10/26 06:54:57;;;;;;;14.85;7.03;;;;;;;11.77;98.39;101884.75;4924193;29;20423;-48
2021/10/26 06:57:50;;;;;;;25.08;15.60;;;;;;;11.77;96.96;101887.50;4939582;29;20139;-48
2021/10/26 07:00:44;;;;;;;23.98;15.48;;;;;;;11.75;96.92;101883.34;4931530;29;20142;-47
2021/10/26 07:03:30;;;;;;;26.17;16.10;;;;;;;11.71;96.41;101888.47;4930783;29;20071;-45
2021/10/26 07:06:24;;;;;;;23.35;12.77;;;;;;;11.77;97.48;101894.88;4977698;28;20050;-45
2021/10/26 07:09:10;;;;;;;31.38;19.92;;;;;;;11.71;96.43;101896.66;4991372;28;20065;-47
2021/10/26 07:11:58;;;;;;;22.10;15.10;;;;;;;11.70;96.45;101906.75;4980841;28;20055;-48
2021/10/26 07:14:26;;;;;;;22.98;14.65;;;;;;;11.76;97.19;101910.44;4990711;28;20066;-49
2021/10/26 07:16:54;;;;;;;28.88;16.98;;;;;;;11.78;97.21;101905.50;4991995;28;20066;-48
2021/10/26 07:19:23;;;;;;;46.55;19.67;;;;;;;11.71;96.14;101894.78;4991219;28;20507;-47
2021/10/26 07:22:09;;;;;;;28.02;14.30;;;;;;;11.79;97.67;101907.19;4990556;28;20540;-49
2021/10/26 07:25:08;;;;;;;26.02;17.10;;;;;;;11.79;96.75;101917.28;4931547;29;20096;-49
2021/10/26 07:27:37;;;;;;;21.80;13.98;;;;;;;11.81;96.20;101926.03;4931651;29;20183;-49
2021/10/26 07:30:07;;;;;;;29.33;17.98;;;;;;;11.88;97.07;101940.38;4914930;29;20048;-48
2021/10/26 07:32:36;;;;;;;27.65;16.48;;;;;;;11.89;96.53;101942.88;4939438;29;20466;-48
2021/10/26 07:35:05;;;;;;;34.72;18.88;;;;;;;11.90;95.82;101946.41;4906116;29;20058;-46
2021/10/26 07:37:37;;;;;;;31.80;16.23;;;;;;;11.93;96.79;101938.56;4915097;29;20127;-48
2021/10/26 07:40:17;;;;;;;26.20;16.70;;;;;;;11.95;96.39;101949.22;4912106;29;20675;-47
2021/10/26 07:43:05;;;;;;;24.92;17.23;;;;;;;11.94;95.67;101951.13;4930763;29;20072;-50
2021/10/26 07:46:00;;;;;;;22.75;14.75;;;;;;;11.91;95.98;101946.19;4916291;29;20075;-53
2021/10/26 07:48:28;;;;;;;17.40;11.48;;;;;;;11.90;95.92;101955.44;4930926;28;20054;-48
2021/10/26 07:50:59;;;;;;;18.25;12.18;;;;;;;12.00;97.78;101943.03;4932042;29;20149;-50
2021/10/26 07:53:28;;;;;;;26.45;15.60;;;;;;;11.91;95.73;101946.19;4930892;29;20068;-47
2021/10/26 07:56:04;;;;;;;25.42;15.30;;;;;;;11.92;96.69;101947.00;4909434;29;20135;-49
2021/10/26 07:58:32;;;;;;;25.00;14.60;;;;;;;11.87;96.03;101950.47;4915905;29;20470;-47
2021/10/26 08:01:00;;;;;;;24.13;14.23;;;;;;;11.86;95.96;101956.19;4900745;28;20425;-46
2021/10/26 08:03:50;;;;;;;18.13;11.88;;;;;;;11.85;96.22;101952.59;4990716;28;20140;-46
2021/10/26 08:06:18;;;;;;;21.88;12.52;;;;;;;11.84;96.19;101959.16;4989619;28;20050;-46
2021/10/26 08:08:47;;;;;;;23.67;10.50;;;;;;;11.96;98.21;101966.47;4981965;28;20126;-45
2021/10/26 08:11:17;;;;;;;22.58;10.75;;;;;;;11.96;97.59;101961.00;4990282;28;20501;-45
2021/10/26 08:13:48;;;;;;;21.23;12.05;;;;;;;11.92;96.11;101956.00;4990465;28;20046;-48
2021/10/26 08:16:19;;;;;;;20.48;10.57;;;;;;;11.99;97.47;101958.59;4976190;28;20081;-47
2021/10/26 08:18:47;;;;;;;16.42;9.40;;;;;;;12.00;96.58;101948.47;4986606;28;20039;-47
2021/10/26 08:21:15;;;;;;;19.60;8.70;;;;;;;12.01;97.39;101944.69;4991233;28;20048;-46
2021/10/26 08:23:49;;;;;;;20.52;10.18;;;;;;;12.05;97.07;101945.81;4990579;28;20096;-46
2021/10/26 08:26:24;;;;;;;19.25;11.75;;;;;;;11.98;95.83;101946.03;4988748;28;20137;-45
2021/10/26 08:28:58;;;;;;;21.20;11.98;;;;;;;11.95;95.33;101941.03;4986875;28;20066;-44
2021/10/26 08:31:31;;;;;;;23.70;12.13;;;;;;;11.94;95.15;101948.41;4990223;28;20061;-47
2021/10/26 08:35:16;;;;;;;22.30;11.77;;;;;;;11.97;95.67;101949.81;4987849;28;20495;-48
2021/10/26 08:37:01;;;;;;;14.70;8.70;;;;;;;12.15;99.39;101949.56;4989133;28;20137;-47
2021/10/26 08:39:31;;;;;;;38.95;9.23;;;;;;;12.18;98.71;101953.69;4988474;28;20394;-47
2021/10/26 08:42:00;;;;;;;39.90;10.70;;;;;;;12.09;96.30;101949.72;4989948;28;20049;-48
2021/10/26 08:44:29;;;;;;;23.35;11.55;;;;;;;12.03;95.56;101959.75;4990463;28;20105;-47
2021/10/26 08:46:58;;;;;;;19.55;9.63;;;;;;;12.05;96.65;101951.28;4989514;28;20046;-47
2021/10/26 08:49:33;;;;;;;16.13;10.18;;;;;;;12.01;95.86;101958.34;4985183;28;20408;-46
2021/10/26 08:52:20;;;;;;;18.65;10.27;;;;;;;12.12;97.54;101952.78;4989632;28;20239;-45
2021/10/26 08:54:58;;;;;;;18.38;10.05;;;;;;;12.18;98.18;101950.94;4989703;28;20048;-48
2021/10/26 08:57:40;;;;;;;17.45;8.30;;;;;;;12.19;99.23;101952.59;4990036;28;20378;-47
2021/10/26 09:00:40;;;;;;;22.67;10.90;;;;;;;12.16;97.33;101953.09;4972841;28;20518;-46
2021/10/26 09:03:19;;;;;;;18.63;10.60;;;;;;;12.08;97.26;101946.16;5006175;28;20049;-47
2021/10/26 09:05:49;;;;;;;21.02;9.82;;;;;;;12.18;97.88;101948.22;5008844;28;20050;-45
2021/10/26 09:08:28;;;;;;;18.55;11.30;;;;;;;12.12;96.10;101946.47;4993864;28;20146;-45
2021/10/26 09:11:26;;;;;;;22.25;11.75;;;;;;;12.06;95.35;101951.03;5006552;28;20093;-47
2021/10/26 09:17:26;;;;;;;21.30;11.35;;;;;;;11.84;94.81;101950.94;4990208;28;20465;-49
2021/10/26 09:20:16;;;;;;;24.40;11.10;;;;;;;11.82;94.76;101953.09;4994263;28;20053;-47
2021/10/26 09:22:52;;;;;;;19.38;11.38;;;;;;;11.82;94.61;101964.03;4979155;28;20042;-44
2021/10/26 09:25:21;;;;;;;18.90;9.25;;;;;;;11.95;95.24;101965.63;4994635;28;20053;-47
2021/10/26 09:27:49;;;;;;;18.60;6.93;;;;;;;12.12;98.36;101960.13;4994427;28;20486;-48
2021/10/26 09:30:21;;;;;;;21.25;11.30;;;;;;;12.20;96.81;101965.19;4992538;28;20387;-48
2021/10/26 09:32:50;;;;;;;17.27;8.93;;;;;;;12.18;96.52;101961.88;4992903;28;20523;-44
2021/10/26 09:35:19;;;;;;;18.45;9.52;;;;;;;12.21;95.60;101961.38;4993531;28;20046;-47
2021/10/26 09:37:50;;;;;;;15.27;8.20;;;;;;;12.29;97.36;101958.22;4994471;28;20049;-48
2021/10/26 09:40:17;;;;;;;16.25;8.82;;;;;;;12.46;99.04;101960.06;4994110;28;20064;-48
2021/10/26 09:42:50;;;;;;;16.75;9.23;;;;;;;12.38;96.84;101961.34;4994261;28;20045;-47
2021/10/26 09:45:24;;;;;;;18.67;8.70;;;;;;;12.45;97.82;101952.97;4994284;28;20053;-47
2021/10/26 09:48:13;;;;;;;18.60;9.50;;;;;;;12.44;96.85;101954.06;4994229;28;20169;-47
2021/10/26 09:50:42;;;;;;;17.60;8.82;;;;;;;12.39;96.69;101956.69;4993779;28;20493;-48
2021/10/26 09:53:12;;;;;;;14.73;8.40;;;;;;;12.35;96.33;101962.66;4994555;28;20050;-46
2021/10/26 09:55:42;;;;;;;16.17;9.45;;;;;;;12.29;95.36;101969.16;4994232;28;20050;-47
2021/10/26 09:58:13;;;;;;;15.63;8.70;;;;;;;12.28;96.30;101967.50;4994410;28;20073;-45
2021/10/26 10:00:44;;;;;;;18.52;9.52;;;;;;;12.31;96.11;101969.75;4993662;28;20048;-47
2021/10/26 10:03:23;;;;;;;14.85;7.97;;;;;;;12.34;96.88;101966.50;5008528;28;20046;-47
2021/10/26 10:05:54;;;;;;;16.15;9.55;;;;;;;12.35;96.32;101968.13;4993856;28;20053;-47
2021/10/26 10:08:42;;;;;;;21.75;12.52;;;;;;;12.30;94.90;101968.06;4993722;28;20141;-48
2021/10/26 10:11:15;;;;;;;22.65;12.85;;;;;;;12.25;94.76;101964.44;4993661;28;20386;-47
2021/10/26 10:13:51;;;;;;;23.40;12.73;;;;;;;12.23;94.47;101970.16;4988588;28;20105;-49
2021/10/26 10:16:20;;;;;;;;;;;;;;;12.24;94.42;101970.97;4980554;28;20049;-46
2021/10/26 10:18:52;;;;;;;25.23;12.80;;;;;;;12.24;94.27;101971.81;5009139;28;19926;-47
2021/10/26 10:21:29;;;;;;;21.15;12.10;;;;;;;12.26;94.92;101964.16;4993285;28;20493;-47
2021/10/26 10:23:59;;;;;;;26.52;13.52;;;;;;;12.28;94.83;101963.94;4988723;28;20054;-47
2021/10/26 10:26:28;;;;;;;25.55;13.35;;;;;;;12.29;94.88;101966.44;4993570;28;20060;-46
2021/10/26 10:28:59;;;;;;;25.52;12.98;;;;;;;12.33;94.70;101964.81;4993433;28;20046;-48
2021/10/26 10:31:27;;;;;;;36.60;18.42;;;;;;;12.35;94.84;101959.94;4977833;28;20049;-47
2021/10/26 10:33:59;;;;;;;194.18;94.28;;;;;;;12.47;95.78;101957.09;4992717;28;20054;-48
2021/10/26 10:36:28;;;;;;;80.47;41.33;;;;;;;12.51;94.59;101954.69;4991421;28;20043;-47
2021/10/26 10:38:56;;;;;;;285.50;139.50;;;;;;;12.65;97.26;101950.50;4992153;28;20053;-48
2021/10/26 10:41:32;;;;;;;161.80;79.97;;;;;;;12.78;98.46;101955.56;4992750;28;20051;-49
2021/10/26 10:44:05;;;;;;;146.02;77.72;;;;;;;12.88;100.00;101957.59;4992712;28;20453;-48
2021/10/26 10:46:44;;;;;;;105.15;54.08;;;;;;;12.81;97.41;101956.97;4992930;28;20043;-48
2021/10/26 10:49:35;;;;;;;37.13;20.45;;;;;;;12.73;96.28;101952.78;4992996;28;20401;-46
2021/10/26 10:52:13;;;;;;;52.30;27.88;;;;;;;12.68;95.58;101955.47;4295842;28;10000674;-46
2021/10/26 10:54:53;;;;;;;121.38;61.50;;;;;;;12.73;97.91;101951.97;4990711;28;20450;-47
2021/10/26 10:57:26;;;;;;;96.18;51.75;;;;;;;12.74;96.32;101954.44;4990492;28;20398;-48
2021/10/26 10:59:59;;;;;;;161.75;80.82;;;;;;;12.86;99.30;101946.09;4988859;28;21648;-48
2021/10/26 11:02:44;;;;;;;135.20;67.60;;;;;;;12.90;98.77;101947.25;4990132;28;20046;-47
2021/10/26 11:05:38;;;;;;;21.10;10.85;;;;;;;12.79;95.67;101940.84;5006042;28;20145;-47
2021/10/26 11:08:13;;;;;;;23.63;10.65;;;;;;;12.75;94.58;101938.88;4979424;28;20070;-46
2021/10/26 11:10:52;;;;;;;21.98;10.82;;;;;;;12.75;94.18;101939.69;4990352;28;20047;-48
2021/10/26 11:13:22;;;;;;;18.23;10.32;;;;;;;12.75;94.68;101936.94;4990203;28;20405;-45
2021/10/26 11:15:52;;;;;;;23.33;10.32;;;;;;;12.77;94.16;101940.25;4988694;28;20501;-46
2021/10/26 11:18:46;;;;;;;19.15;9.30;;;;;;;12.79;93.95;101935.38;4990518;28;20043;-46
2021/10/26 11:21:24;;;;;;;21.08;9.75;;;;;;;12.84;94.15;101936.50;4990332;28;20038;-47
2021/10/26 11:23:58;;;;;;;22.92;8.93;;;;;;;12.90;93.75;101927.28;4988445;28;20042;-45
2021/10/26 11:26:38;;;;;;;124.20;62.00;;;;;;;13.06;94.28;101931.84;4989843;28;20165;-47
2021/10/26 11:29:14;;;;;;;96.57;41.78;;;;;;;13.16;94.66;101928.38;4989834;28;20494;-47
2021/10/26 11:31:48;;;;;;;123.85;63.17;;;;;;;13.27;95.64;101912.88;4985117;28;20038;-48
2021/10/26 11:34:21;;;;;;;60.25;30.10;;;;;;;13.28;94.45;101915.38;4989354;28;20511;-47
2021/10/26 11:37:06;;;;;;;55.83;25.35;;;;;;;13.31;93.76;101909.38;4977700;28;20050;-47
2021/10/26 11:39:39;;;;;;;121.88;59.47;;;;;;;13.45;95.81;101907.06;5004578;28;20042;-47